Ardenhurst, Minnesota
Current Conditions -  °F | °C
As of 12:33 PM on Saturday 25 Oct 2014 (Local Time) from KFOZ Reporting Station
Clear Clear  
Wind Chill: 54°   Ceiling: Unl
Heat Index: 54°   Visibility: 10mi
Dew Point: 28°   Wind: 9mph
Humidity: 38%   Direction: 270°W
Pressure: 29.96"   Gusts: 25mph
Location:  47.8312°N, 94.1459°W
Report Text: KFOZ 251733Z AUTO 27008G22KT 233V323 10SM CLR 12/M02 A2996 RMK AO2
Loading
Personal Weather Stations






























Interactive Weather Map
Tropical Storm Tracking
New forecast layout! Learn more

10-Day Weather Forecast

Advertisements
Track Severe Weather on mobile